CST,Max TemperatureF,Mean TemperatureF,Min TemperatureF,Max Dew PointF,MeanDew PointF,Min DewpointF,Max Humidity, Mean Humidity, Min Humidity, Max Sea Level PressureIn, Mean Sea Level PressureIn, Min Sea Level PressureIn, Max VisibilityMiles, Mean VisibilityMiles, Min VisibilityMiles, Max Wind SpeedMPH, Mean Wind SpeedMPH, Max Gust SpeedMPH,PrecipitationIn, CloudCover, Events, WindDirDegrees
2011-11-1,77,63,49,56,53,48,97,72,47,29.99,29.92,29.84,10,10,10,20,12,25,0.00,0,,154
2011-11-2,65,52,40,55,43,29,93,69,51,30.40,30.04,29.82,10,10,10,32,17,43,0.07,4,,337
2011-11-3,54,44,34,31,25,18,75,53,24,30.48,30.38,30.29,10,9,2,16,10,,0.00,0,,328
2011-11-4,59,44,28,29,25,22,83,51,25,30.27,30.17,30.02,10,10,10,15,4,20,0.00,0,,134
2011-11-5,69,56,43,47,32,25,74,43,25,30.00,29.83,29.69,10,10,10,29,15,36,0.00,0,,143
2011-11-6,74,58,42,49,39,29,99,58,20,29.96,29.89,29.75,10,10,9,16,9,,0.00,0,,188
2011-11-7,75,62,49,68,62,45,100,93,73,29.95,29.82,29.67,10,6,0,48,12,72,1.75,7,Fog-Rain-Thunderstorm,137
2011-11-8,57,50,42,55,48,36,100,89,67,30.23,29.92,29.77,10,10,6,24,13,36,0.36,6,Rain-Thunderstorm,334
2011-11-9,59,48,38,40,36,30,86,68,43,30.46,30.38,30.24,10,10,10,17,12,21,0.00,0,,329
2011-11-10,63,49,35,42,35,31,83,65,31,30.49,30.36,30.18,10,10,9,15,8,,0.00,0,,242
2011-11-11,68,50,33,40,36,32,92,62,30,30.14,29.98,29.84,10,10,10,17,8,,0.00,0,,171
2011-11-12,75,60,44,40,37,33,79,49,24,29.83,29.72,29.64,10,10,10,23,11,28,0.00,2,,186
2011-11-13,79,64,50,46,40,34,60,41,24,29.71,29.67,29.61,10,10,10,26,14,32,0.00,1,,213
2011-11-14,67,61,55,50,46,45,69,59,45,29.81,29.74,29.67,10,10,6,13,8,,0.00,3,,35
2011-11-15,67,57,47,48,41,33,92,58,37,29.86,29.76,29.70,10,10,5,14,7,21,0.00,1,,4
2011-11-16,52,44,34,33,28,20,82,53,32,30.45,30.13,29.86,10,10,10,29,19,33,0.00,0,,28
2011-11-17,51,40,29,31,29,26,89,66,40,30.51,30.36,30.14,10,10,10,17,9,,0.00,0,,169
2011-11-18,66,52,37,52,41,31,85,68,50,30.12,29.92,29.74,10,10,10,26,14,32,0.00,2,,160
2011-11-19,75,60,44,57,49,37,100,81,33,29.90,29.76,29.71,10,9,1,26,10,34,0.00,0,,163
2011-11-20,44,40,36,35,31,30,80,70,61,30.24,30.15,29.92,10,10,10,29,16,36,0.00,6,,17
2011-11-21,42,40,37,43,38,30,100,93,68,30.22,30.06,29.94,10,8,2,17,9,21,0.15,8,Rain-Thunderstorm,16
2011-11-22,58,48,39,50,44,39,100,93,67,30.37,30.11,30.00,10,9,0,18,9,,0.00,6,Fog-Rain,341
2011-11-23,47,41,35,44,39,35,100,97,87,30.29,30.24,30.21,10,5,0,7,3,,0.00,0,Fog,329
2011-11-24,68,53,38,51,45,38,100,86,47,30.22,30.14,30.01,10,10,8,20,7,25,0.00,0,,138
2011-11-25,61,54,48,58,54,48,100,92,77,30.00,29.86,29.73,10,9,3,26,13,32,0.06,5,Rain,153
2011-11-26,55,49,41,56,44,23,100,82,39,30.37,29.92,29.70,10,7,0,39,15,54,1.48,3,Fog-Rain,346
2011-11-27,50,42,33,23,19,14,60,44,24,30.45,30.35,30.25,10,10,10,22,15,28,0.00,0,,330
2011-11-28,55,41,27,29,24,19,83,55,27,30.23,30.12,30.04,10,10,10,8,4,,0.00,0,,129
2011-11-29,55,44,32,36,31,28,85,62,35,30.34,30.27,30.12,10,10,7,20,9,26,0.00,1,,3
2011-11-30,57,42,27,33,28,25,97,62,30,30.29,30.11,29.94,10,10,10,21,6,,0.00,0,,158